Klemme/'s Corner

Nearby METAR Reports

 

KI67 - Harrison, Ohio, USA
Distance from station: ESE 14mi, 23km
Updated: Fri, 21-Jun-2024 4:35pm EDT
NOT Current

 
2024/06/21 20:35 KI67 212035Z AUTO RMK AO1 PNO
KHAO - Hamilton, Ohio, USA
Distance from station: E 26mi, 42km
Updated: Tue, 16-Jul-2024 10:53pm EDT
NOT Current
Clear
Clear
 Wind from calm
Wind: Calm
Temperature: 77°F , 25°C
Dew Point: 72°F , 22°C
Humidity: 83%
Barometer: 29.92 inHg , 1013.2 hPa
Clouds: Clear
Visibility: 10 miles , 16 km
2024/07/17 02:53 KHAO 170253Z AUTO 00000KT 10SM CLR 25/22 A2992 RMK AO2 SLP126 T02500217 53015
 
KCVG - Covington, Kentucky, USA
Distance from station: SE 28mi, 45km
Updated: Thu, 18-Jul-2024 6:52am EDT
Mostly cloudy
Mostly cloudy
 Wind from N
Wind: N 10 mph , 17 km/h
Temperature: 63°F , 17°C
Dew Point: 54°F , 12°C
Humidity: 73%
Barometer: 30.05 inHg , 1017.6 hPa
Clouds: Mostly cloudy
Visibility: 10 miles , 16 km
Cloud details: Few Clouds 21000 ft
Mostly cloudy 28000 ft
2024/07/18 10:52 KCVG 181052Z 35009KT 10SM FEW210 BKN280 17/12 A3005 RMK AO2 SLP168 T01720122 $
KRID - Richmond, Indiana, USA
Distance from station: NNE 29mi, 46km
Updated: Thu, 18-Jul-2024 7:55am EDT
Clear
Clear
 Wind from N
Wind: N 8 mph , 13 km/h
Temperature: 59°F , 15°C
Dew Point: 54°F , 12°C
Humidity: 82%
Barometer: 30.10 inHg , 1019.3 hPa
Clouds: Clear
Visibility: 10 miles , 16 km
2024/07/18 11:55 KRID 181155Z AUTO 36007KT 10SM CLR 15/12 A3010 RMK AO2
 
KMWO - Middletown/Hook, Ohio, USA
Distance from station: ENE 35mi, 56km
Updated: Thu, 18-Jul-2024 7:35am EDT
Clear
Clear
 Wind from NNE
Wind: NNE 7 mph , 11 km/h
Temperature: 61°F , 16°C
Dew Point: 54°F , 12°C
Humidity: 77%
Barometer: 30.09 inHg , 1019 hPa
Clouds: Clear
Visibility: 10 miles , 16 km
2024/07/18 11:35 KMWO 181135Z AUTO 03006KT 10SM CLR 16/12 A3009 RMK AO2 T01620120
KLUK - Cincinnat/Lunken, Ohio, USA
Distance from station: ESE 36mi, 58km
Updated: Thu, 18-Jul-2024 6:53am EDT
Clear
Clear
 Wind from N
Wind: N 6 mph , 9 km/h
Temperature: 64°F , 18°C
Dew Point: 54°F , 12°C
Humidity: 68%
Barometer: 30.05 inHg , 1017.6 hPa
Clouds: Clear
Visibility: 10 miles , 16 km
2024/07/18 10:53 KLUK 181053Z 01005KT 10SM CLR 18/12 A3005 RMK AO2 SLP172 T01830122
 
KMGY - Dayton, Ohio, USA
Distance from station: ENE 45mi, 72km
Updated: Thu, 18-Jul-2024 6:53am EDT
Clear
Clear
 Wind from N
Wind: N 10 mph , 17 km/h
Temperature: 61°F , 16°C
Dew Point: 54°F , 12°C
Humidity: 77%
Barometer: 30.05 inHg , 1017.6 hPa
Clouds: Clear
Visibility: 10 miles , 16 km
2024/07/18 10:53 KMGY 181053Z AUTO 36009KT 10SM CLR 16/12 A3005 RMK AO2 SLP168 T01610117
KGEZ - Shelbyville, Indiana, USA
Distance from station: WNW 45mi, 73km
Updated: Thu, 18-Jul-2024 6:53am EDT
Clear
Clear
 Wind from N
Wind: N 7 mph , 11 km/h
Temperature: 61°F , 16°C
Dew Point: 55°F , 13°C
Humidity: 83%
Barometer: 30.09 inHg , 1019 hPa
Clouds: Clear
Visibility: 10 miles , 16 km
2024/07/18 10:53 KGEZ 181053Z AUTO 36006KT 10SM CLR 16/13 A3009 RMK AO2 SLP184 T01560128 $
 
KI69 - Batavia, Ohio, USA
Distance from station: ESE 46mi, 74km
Updated: Thu, 18-Jul-2024 7:36am EDT
Clear
Clear
 Wind from NNW
Wind: NNW 3 mph , 6 km/h
Temperature: 63°F , 17°C
Dew Point: 55°F , 13°C
Humidity: 77%
Barometer: 30.08 inHg , 1018.6 hPa
Clouds: Clear
Visibility: 10 miles , 16 km
2024/07/18 11:36 KI69 181136Z AUTO 33003KT 10SM CLR 17/13 A3008 RMK AO1 T01670130
KIMS - Madison, Indiana, USA
Distance from station: SSW 48mi, 76km
Updated: Thu, 18-Jul-2024 7:35am EDT
Clear
Clear
 Wind from calm
Wind: Calm
Temperature: 61°F , 16°C
Dew Point: 59°F , 15°C
Humidity: 94%
Barometer: 30.11 inHg , 1019.6 hPa
Clouds: Clear
Visibility: 10 miles , 16 km
2024/07/18 11:35 KIMS 181135Z AUTO 00000KT 10SM CLR 16/15 A3011 RMK AO2
 
KBAK - Columbus/Balkala, Indiana, USA
Distance from station: W 48mi, 78km
Updated: Thu, 18-Jul-2024 6:45am EDT
Partly cloudy
Partly cloudy
 Wind from NNW
Wind: NNW 7 mph , 11 km/h
Temperature: 59°F , 15°C
Dew Point: 55°F , 13°C
Humidity: 88%
Barometer: 30.09 inHg , 1019 hPa
Clouds: Partly cloudy
Visibility: 10 miles , 16 km
Cloud details: Partly cloudy 10000 ft
2024/07/18 10:45 KBAK 181045Z 34006KT 10SM SCT100 15/13 A3009